Terminal Aerodrome Forecast
Issued by NWS

Home | Current Version | Previous Version | Text Only | Print | Product List | Glossary On
Versions: 1 2 3 4 5 6 7 8 9 10 11 12 13 14 15
000
FTUS42 KGSP 290107 AAA
TAFHKY
TAF AMD
KHKY 290107Z 2901/2924 22012G20KT P6SM FEW070 SCT250
      TEMPO 2901/2903 VRB10G17KT 5SM -TSRA BKN070CB OVC250
     FM290300 26007KT P6SM SCT200
     FM291500 30006KT P6SM FEW070 SCT200 PROB30 2920/2924 4SM -SHRA
      OVC040=

USA.gov is the U.S. government's official web portal to all federal, state and local government web resources and services.